createdAt,value
2023-04-26T00:00:13.408Z,3.08
2023-04-26T00:01:13.454Z,3.36
2023-04-26T00:02:13.552Z,3.04
2023-04-26T00:03:13.636Z,3.52
2023-04-26T00:04:14.609Z,2.20
2023-04-26T00:05:13.184Z,2.08
2023-04-26T00:06:13.265Z,2.28
2023-04-26T00:07:13.147Z,2.80
2023-04-26T00:08:13.171Z,1.40
2023-04-26T00:09:13.375Z,2.76
2023-04-26T00:10:13.174Z,2.24
2023-04-26T00:11:13.304Z,1.12
2023-04-26T00:12:13.397Z,2.20
2023-04-26T00:13:13.317Z,2.08
2023-04-26T00:14:13.222Z,1.88
2023-04-26T00:15:13.382Z,2.16
2023-04-26T00:16:13.816Z,1.36
2023-04-26T00:17:13.957Z,1.12
2023-04-26T00:18:13.133Z,1.68
2023-04-26T00:19:13.253Z,1.32
2023-04-26T00:20:13.355Z,2.00
2023-04-26T00:21:13.297Z,1.92
2023-04-26T00:22:13.346Z,1.60
2023-04-26T00:23:13.253Z,1.84
2023-04-26T00:24:13.337Z,2.36
2023-04-26T00:25:13.379Z,2.88
2023-04-26T00:26:13.617Z,0.96
2023-04-26T00:27:13.632Z,0.88
2023-04-26T00:28:13.881Z,1.56
2023-04-26T00:29:12.900Z,2.44
2023-04-26T00:30:13.033Z,2.68
2023-04-26T00:31:13.502Z,2.12
2023-04-26T00:32:13.786Z,1.44
2023-04-26T00:33:14.103Z,3.28
2023-04-26T00:34:13.342Z,2.16
2023-04-26T00:35:13.453Z,1.32
2023-04-26T00:36:13.473Z,0.88
2023-04-26T00:37:13.593Z,1.76
2023-04-26T00:38:13.518Z,3.20
2023-04-26T00:39:13.414Z,2.52
2023-04-26T00:40:13.409Z,0.52
2023-04-26T00:41:13.430Z,1.52
2023-04-26T00:42:18.764Z,0.08
2023-04-26T00:43:13.893Z,0.92
2023-04-26T00:44:12.943Z,1.60
2023-04-26T00:45:13.127Z,1.12
2023-04-26T00:46:13.294Z,1.48
2023-04-26T00:47:18.501Z,1.20
2023-04-26T00:48:13.372Z,0.32
2023-04-26T00:49:13.282Z,0.20
2023-04-26T00:50:13.673Z,0.08
2023-04-26T00:51:13.729Z,0.00
2023-04-26T00:52:13.661Z,0.08
2023-04-26T00:53:13.807Z,1.16
2023-04-26T00:54:13.959Z,1.40
2023-04-26T00:55:13.076Z,1.84
2023-04-26T00:56:13.238Z,2.24
2023-04-26T00:57:13.253Z,1.84
2023-04-26T00:58:13.718Z,1.16
2023-04-26T00:59:13.649Z,1.72
2023-04-26T01:00:13.683Z,2.24
2023-04-26T01:01:13.623Z,3.36
2023-04-26T01:02:13.729Z,2.72
2023-04-26T01:03:14.313Z,2.36
2023-04-26T01:04:13.750Z,3.56
2023-04-26T01:05:13.039Z,3.56
2023-04-26T01:06:13.078Z,4.56
2023-04-26T01:07:13.148Z,5.80
2023-04-26T01:08:13.146Z,4.48
2023-04-26T01:09:13.117Z,6.24
2023-04-26T01:10:13.081Z,6.76
2023-04-26T01:11:13.091Z,9.08
2023-04-26T01:12:13.201Z,5.60
2023-04-26T01:13:13.340Z,6.68
2023-04-26T01:14:13.505Z,5.32
2023-04-26T01:15:13.429Z,5.76
2023-04-26T01:16:13.684Z,3.44
2023-04-26T01:17:13.727Z,2.04
2023-04-26T01:18:13.821Z,1.52
2023-04-26T01:19:13.788Z,1.40
2023-04-26T01:20:13.749Z,2.44
2023-04-26T01:21:13.718Z,2.40
2023-04-26T01:22:13.662Z,1.84
2023-04-26T01:23:13.974Z,0.72
2023-04-26T01:24:12.893Z,0.00
2023-04-26T01:25:13.978Z,1.48
2023-04-26T01:26:13.894Z,2.20
2023-04-26T01:27:13.120Z,1.24
2023-04-26T01:28:13.855Z,2.68
2023-04-26T01:29:13.763Z,2.44
2023-04-26T01:30:13.722Z,2.88
2023-04-26T01:31:13.736Z,3.00
2023-04-26T01:32:13.981Z,5.32
2023-04-26T01:33:13.003Z,4.64
2023-04-26T01:34:13.016Z,3.68
2023-04-26T01:35:12.944Z,4.40
2023-04-26T01:36:13.892Z,4.12
2023-04-26T01:37:12.981Z,3.40
2023-04-26T01:38:13.347Z,4.56
2023-04-26T01:39:13.215Z,4.64
2023-04-26T01:40:13.181Z,7.28
2023-04-26T01:41:13.166Z,5.24
2023-04-26T01:42:13.077Z,3.20
2023-04-26T01:43:12.996Z,2.40
2023-04-26T01:44:12.895Z,2.48
2023-04-26T01:45:12.765Z,3.52
2023-04-26T01:46:13.738Z,2.04
2023-04-26T01:47:13.697Z,3.08
2023-04-26T01:48:13.752Z,5.84
2023-04-26T01:49:13.956Z,6.52
2023-04-26T01:50:12.953Z,6.16
2023-04-26T01:51:13.120Z,6.48
2023-04-26T01:52:15.446Z,7.16
2023-04-26T01:53:13.315Z,5.40
2023-04-26T01:54:13.458Z,5.68
2023-04-26T01:55:13.793Z,6.32
2023-04-26T01:56:13.682Z,3.08
2023-04-26T01:57:13.797Z,3.80
2023-04-26T01:58:14.151Z,4.68
2023-04-26T01:59:13.121Z,3.80
2023-04-26T02:00:13.113Z,0.52
2023-04-26T02:01:13.302Z,1.24
2023-04-26T02:02:13.520Z,0.52
2023-04-26T02:03:13.714Z,0.00
2023-04-26T02:04:14.238Z,1.64
2023-04-26T02:05:13.481Z,2.04
2023-04-26T02:06:13.784Z,1.48
2023-04-26T02:07:13.739Z,1.44
2023-04-26T02:08:13.882Z,2.76
2023-04-26T02:09:12.931Z,3.40
2023-04-26T02:10:12.910Z,3.92
2023-04-26T02:11:13.399Z,3.64
2023-04-26T02:12:13.476Z,4.00
2023-04-26T02:13:13.443Z,3.12
2023-04-26T02:14:13.857Z,3.72
2023-04-26T02:15:13.847Z,4.04
2023-04-26T02:16:14.090Z,2.08
2023-04-26T02:17:13.068Z,1.44
2023-04-26T02:18:13.454Z,1.92
2023-04-26T02:19:13.914Z,3.16
2023-04-26T02:20:13.031Z,3.16
2023-04-26T02:21:13.258Z,2.68
2023-04-26T02:22:13.384Z,1.36
2023-04-26T02:23:13.703Z,1.72
2023-04-26T02:24:14.085Z,1.84
2023-04-26T02:25:13.408Z,3.08
2023-04-26T02:26:13.658Z,2.12
2023-04-26T02:27:13.607Z,3.16
2023-04-26T02:28:13.718Z,3.00
2023-04-26T02:29:13.668Z,3.16
2023-04-26T02:30:13.706Z,2.60
2023-04-26T02:31:13.744Z,3.44
2023-04-26T02:32:13.696Z,3.20
2023-04-26T02:33:13.536Z,2.68
2023-04-26T02:34:13.654Z,2.12
2023-04-26T02:35:13.492Z,1.28
2023-04-26T02:36:13.516Z,1.32
2023-04-26T02:37:13.445Z,1.60
2023-04-26T02:38:13.350Z,1.36
2023-04-26T02:39:13.321Z,1.88
2023-04-26T02:40:13.341Z,1.36
2023-04-26T02:41:13.446Z,1.56
2023-04-26T02:42:13.546Z,1.08
2023-04-26T02:43:13.590Z,1.60
2023-04-26T02:44:13.488Z,1.20
2023-04-26T02:45:13.622Z,1.24
2023-04-26T02:46:14.599Z,1.60
2023-04-26T02:47:13.713Z,0.64
2023-04-26T02:48:13.789Z,1.08
2023-04-26T02:49:13.738Z,1.08
2023-04-26T02:50:13.699Z,0.92
2023-04-26T02:51:13.942Z,1.12
2023-04-26T02:52:18.317Z,1.40
2023-04-26T02:53:13.208Z,0.72
2023-04-26T02:54:13.395Z,0.44
2023-04-26T02:55:13.380Z,0.04
2023-04-26T02:56:13.468Z,0.00
2023-04-26T02:57:13.374Z,0.00
2023-04-26T02:58:13.370Z,0.04
2023-04-26T02:59:13.394Z,0.52
2023-04-26T03:00:13.385Z,0.60
2023-04-26T03:01:13.493Z,1.08
2023-04-26T03:02:13.520Z,0.44
2023-04-26T03:03:14.059Z,0.96
2023-04-26T03:04:13.435Z,1.20
2023-04-26T03:05:13.533Z,0.48
2023-04-26T03:06:13.448Z,0.72
2023-04-26T03:07:13.462Z,0.64
2023-04-26T03:08:13.451Z,0.12
2023-04-26T03:09:13.310Z,1.00
2023-04-26T03:10:13.230Z,1.68
2023-04-26T03:11:13.181Z,1.24
2023-04-26T03:12:13.118Z,1.60
2023-04-26T03:13:13.138Z,2.44
2023-04-26T03:14:13.057Z,2.40
2023-04-26T03:15:14.437Z,2.40
2023-04-26T03:16:13.540Z,3.28
2023-04-26T03:17:14.008Z,2.40
2023-04-26T03:18:12.890Z,3.00
2023-04-26T03:19:13.162Z,3.40
2023-04-26T03:20:13.019Z,3.52
2023-04-26T03:21:13.330Z,3.16
2023-04-26T03:22:13.393Z,3.20
2023-04-26T03:23:13.488Z,3.48
2023-04-26T03:24:13.382Z,3.16
2023-04-26T03:25:13.606Z,2.16
2023-04-26T03:26:13.520Z,2.44
2023-04-26T03:27:13.586Z,0.96
2023-04-26T03:28:13.482Z,3.00
2023-04-26T03:29:14.044Z,1.28
2023-04-26T03:30:13.288Z,1.16
2023-04-26T03:31:13.799Z,0.80
2023-04-26T03:32:14.117Z,2.44
2023-04-26T03:33:13.262Z,2.40
2023-04-26T03:34:13.523Z,1.24
2023-04-26T03:35:13.581Z,1.84
2023-04-26T03:36:13.494Z,1.48
2023-04-26T03:37:13.605Z,1.32
2023-04-26T03:38:13.608Z,1.12
2023-04-26T03:39:13.690Z,1.00
2023-04-26T03:40:13.649Z,0.96
2023-04-26T03:41:13.570Z,2.64
2023-04-26T03:42:13.867Z,2.32
2023-04-26T03:43:13.982Z,1.28
2023-04-26T03:44:12.958Z,0.72
2023-04-26T03:45:13.877Z,0.80
2023-04-26T03:46:12.880Z,0.60
2023-04-26T03:47:12.770Z,0.12
2023-04-26T03:48:13.728Z,0.00
2023-04-26T03:49:13.715Z,0.16
2023-04-26T03:50:13.746Z,1.28
2023-04-26T03:51:14.734Z,2.04
2023-04-26T03:52:13.679Z,1.60
2023-04-26T03:53:13.738Z,0.52
2023-04-26T03:54:13.663Z,1.32
2023-04-26T03:55:13.934Z,0.16
2023-04-26T03:56:13.344Z,0.48
2023-04-26T03:57:13.182Z,0.32
2023-04-26T03:58:13.213Z,1.20
2023-04-26T03:59:13.112Z,0.76
2023-04-26T04:00:18.237Z,0.04
2023-04-26T04:01:13.403Z,0.44
2023-04-26T04:02:18.717Z,0.12
2023-04-26T04:03:14.458Z,0.12
2023-04-26T04:04:14.154Z,0.16
2023-04-26T04:05:13.974Z,0.00
2023-04-26T04:06:13.366Z,0.44
2023-04-26T04:07:13.374Z,1.20
2023-04-26T04:08:13.308Z,2.24
2023-04-26T04:09:13.436Z,3.20
2023-04-26T04:10:13.493Z,2.68
2023-04-26T04:11:13.409Z,1.84
2023-04-26T04:12:13.477Z,1.00
2023-04-26T04:13:13.829Z,2.20
2023-04-26T04:14:13.840Z,2.36
2023-04-26T04:15:13.974Z,1.40
2023-04-26T04:16:13.459Z,1.00
2023-04-26T04:17:13.768Z,1.24
2023-04-26T04:18:14.033Z,1.24
2023-04-26T04:19:13.134Z,2.04
2023-04-26T04:20:13.462Z,2.60
2023-04-26T04:21:13.449Z,3.52
2023-04-26T04:22:13.532Z,3.12
2023-04-26T04:23:13.377Z,3.24
2023-04-26T04:24:13.341Z,2.44
2023-04-26T04:25:13.598Z,3.16
2023-04-26T04:26:13.669Z,3.76
2023-04-26T04:27:13.980Z,2.28
2023-04-26T04:28:12.940Z,3.08
2023-04-26T04:29:13.057Z,2.04
2023-04-26T04:30:18.203Z,4.24
2023-04-26T04:31:13.337Z,4.80
2023-04-26T04:32:13.593Z,4.56
2023-04-26T04:33:13.921Z,5.04
2023-04-26T04:34:13.132Z,3.44
2023-04-26T04:35:13.427Z,5.31
2023-04-26T04:36:13.588Z,5.04
2023-04-26T04:37:13.931Z,3.20
2023-04-26T04:38:12.858Z,1.88
2023-04-26T04:39:13.752Z,3.76
2023-04-26T04:40:13.750Z,3.04
2023-04-26T04:41:13.666Z,4.32
2023-04-26T04:42:13.594Z,2.64
2023-04-26T04:43:13.518Z,2.76
2023-04-26T04:44:13.557Z,2.72
2023-04-26T04:45:13.685Z,3.32
2023-04-26T04:46:13.678Z,3.68
2023-04-26T04:47:13.773Z,3.48
2023-04-26T04:48:13.763Z,4.52
2023-04-26T04:49:13.637Z,4.84
2023-04-26T04:50:13.595Z,6.64
2023-04-26T04:51:13.693Z,3.88
2023-04-26T04:52:13.940Z,5.24
2023-04-26T04:53:13.448Z,6.48
2023-04-26T04:54:13.874Z,5.80
2023-04-26T04:55:13.154Z,7.76
2023-04-26T04:56:13.459Z,6.96
2023-04-26T04:57:13.650Z,6.28
2023-04-26T04:58:13.562Z,8.32
2023-04-26T04:59:13.565Z,6.56
2023-04-26T05:00:13.445Z,8.96
2023-04-26T05:01:13.346Z,5.96
2023-04-26T05:02:13.779Z,8.48
2023-04-26T05:03:13.104Z,8.32
2023-04-26T05:04:13.346Z,7.56
2023-04-26T05:05:13.668Z,8.76
2023-04-26T05:06:13.765Z,10.20
2023-04-26T05:07:13.993Z,5.36
2023-04-26T05:08:13.114Z,4.52
2023-04-26T05:09:13.417Z,4.44
2023-04-26T05:10:13.543Z,2.76
2023-04-26T05:11:13.698Z,4.08
2023-04-26T05:12:13.564Z,4.24
2023-04-26T05:13:13.499Z,5.76
2023-04-26T05:14:13.702Z,4.60
2023-04-26T05:15:13.869Z,5.28
2023-04-26T05:16:13.779Z,4.68
2023-04-26T05:17:13.677Z,6.84
2023-04-26T05:18:13.756Z,8.72
2023-04-26T05:19:13.821Z,7.20
2023-04-26T05:20:13.741Z,12.60
2023-04-26T05:21:13.739Z,10.92
2023-04-26T05:22:13.867Z,7.00
2023-04-26T05:23:13.773Z,8.40
2023-04-26T05:24:13.741Z,8.72
2023-04-26T05:25:50.808Z,10.92
2023-04-26T05:26:13.873Z,6.60
2023-04-26T05:27:14.053Z,6.60
2023-04-26T05:28:13.170Z,4.44
2023-04-26T05:29:13.109Z,4.48
2023-04-26T05:30:13.205Z,4.76
2023-04-26T05:31:13.703Z,6.44
2023-04-26T05:32:13.656Z,5.36
2023-04-26T05:33:13.750Z,5.40
2023-04-26T05:34:13.832Z,5.08
2023-04-26T05:35:13.785Z,7.20
2023-04-26T05:36:13.929Z,2.24
2023-04-26T05:37:13.062Z,3.84
2023-04-26T05:38:12.951Z,5.68
2023-04-26T05:39:13.220Z,5.60
2023-04-26T05:40:13.397Z,6.28
2023-04-26T05:41:14.313Z,4.40
2023-04-26T05:42:15.173Z,3.32
2023-04-26T05:43:13.541Z,3.88
2023-04-26T05:44:13.420Z,6.16
2023-04-26T05:45:13.652Z,11.44
2023-04-26T05:46:13.975Z,7.68
2023-04-26T05:47:13.072Z,9.16
2023-04-26T05:48:12.990Z,7.84
2023-04-26T05:49:12.971Z,11.20
2023-04-26T05:50:13.275Z,8.60
2023-04-26T05:51:13.343Z,7.92
2023-04-26T05:52:13.374Z,7.40
2023-04-26T05:53:13.447Z,6.32
2023-04-26T05:54:13.693Z,7.76
2023-04-26T05:55:13.749Z,5.36
2023-04-26T05:56:13.645Z,5.24
2023-04-26T05:57:13.616Z,6.40
2023-04-26T05:58:13.569Z,6.68
2023-04-26T05:59:13.503Z,10.60
2023-04-26T06:00:13.377Z,8.08
2023-04-26T06:01:13.441Z,5.40
2023-04-26T06:02:13.669Z,3.36
2023-04-26T06:03:13.937Z,5.28
2023-04-26T06:04:13.566Z,3.84
2023-04-26T06:05:14.188Z,2.64
2023-04-26T06:06:13.524Z,3.44
2023-04-26T06:07:13.985Z,4.48
2023-04-26T06:08:12.955Z,8.04
2023-04-26T06:09:12.889Z,7.56
2023-04-26T06:10:12.884Z,8.00
2023-04-26T06:11:13.232Z,5.72
2023-04-26T06:12:13.436Z,4.88
2023-04-26T06:13:13.530Z,4.12
2023-04-26T06:14:28.827Z,8.08
2023-04-26T06:15:13.725Z,7.44
2023-04-26T06:16:13.654Z,8.04
2023-04-26T06:17:13.985Z,4.56
2023-04-26T06:18:13.519Z,5.44
2023-04-26T06:19:13.572Z,6.16
2023-04-26T06:20:19.041Z,5.84
2023-04-26T06:21:13.352Z,9.64
2023-04-26T06:22:13.330Z,9.68
2023-04-26T06:23:13.254Z,7.60
2023-04-26T06:24:13.151Z,8.40
2023-04-26T06:25:13.012Z,5.88
2023-04-26T06:26:13.115Z,8.96
2023-04-26T06:27:13.044Z,2.68
2023-04-26T06:28:13.627Z,2.40
2023-04-26T06:29:13.507Z,7.68
2023-04-26T06:30:13.391Z,10.76
2023-04-26T06:31:13.258Z,9.60
2023-04-26T06:32:13.192Z,9.76
2023-04-26T06:33:13.118Z,8.72
2023-04-26T06:34:18.017Z,11.60
2023-04-26T06:35:13.080Z,6.76
2023-04-26T06:36:13.357Z,7.64
2023-04-26T06:37:13.645Z,11.92
2023-04-26T06:38:18.725Z,7.16
2023-04-26T06:39:13.708Z,6.76
2023-04-26T06:40:13.781Z,2.64
2023-04-26T06:41:13.791Z,11.24
2023-04-26T06:42:13.947Z,12.92
2023-04-26T06:43:12.827Z,7.96
2023-04-26T06:44:13.641Z,3.20
2023-04-26T06:45:13.492Z,6.72
2023-04-26T06:46:14.065Z,4.80
2023-04-26T06:47:13.237Z,12.56
2023-04-26T06:48:13.652Z,17.48
2023-04-26T06:49:13.920Z,12.80
2023-04-26T06:50:12.907Z,10.12
2023-04-26T06:51:12.875Z,24.24
2023-04-26T06:52:15.370Z,19.36
2023-04-26T06:53:13.446Z,15.48
2023-04-26T06:54:13.302Z,16.76
2023-04-26T06:55:13.281Z,6.44
2023-04-26T06:56:13.822Z,11.72
2023-04-26T06:57:13.957Z,20.84
2023-04-26T06:58:13.155Z,16.04
2023-04-26T06:59:12.999Z,13.04
2023-04-26T07:00:13.371Z,6.40
2023-04-26T07:01:13.644Z,14.56
2023-04-26T07:02:15.193Z,14.04
2023-04-26T07:03:14.026Z,11.16
2023-04-26T07:04:13.375Z,7.08
2023-04-26T07:05:13.779Z,7.36
2023-04-26T07:06:12.891Z,9.00
2023-04-26T07:07:13.703Z,8.04
2023-04-26T07:08:13.051Z,9.84
2023-04-26T07:09:13.279Z,22.44
2023-04-26T07:10:13.126Z,6.36
2023-04-26T07:11:13.525Z,7.97
2023-04-26T07:12:13.990Z,6.08
2023-04-26T07:13:15.341Z,1.80
2023-04-26T07:14:13.349Z,2.64
2023-04-26T07:15:13.400Z,9.52
2023-04-26T07:16:13.274Z,7.20
2023-04-26T07:17:13.369Z,6.08
2023-04-26T07:18:13.702Z,9.72
2023-04-26T07:19:14.056Z,8.64
2023-04-26T07:20:13.256Z,7.60
2023-04-26T07:21:13.495Z,10.16
2023-04-26T07:22:13.993Z,5.48
2023-04-26T07:23:13.029Z,6.32
2023-04-26T07:24:12.945Z,2.84
2023-04-26T07:25:13.191Z,5.76
2023-04-26T07:26:13.479Z,4.40
2023-04-26T07:27:13.515Z,5.40
2023-04-26T07:28:13.888Z,6.76
2023-04-26T07:29:12.934Z,11.72
2023-04-26T07:30:13.242Z,7.12
2023-04-26T07:31:13.253Z,2.44
2023-04-26T07:32:13.519Z,4.52
2023-04-26T07:33:13.849Z,5.32
2023-04-26T07:34:13.235Z,8.72
2023-04-26T07:35:13.558Z,17.40
2023-04-26T07:36:13.501Z,12.48
2023-04-26T07:37:13.413Z,7.40
2023-04-26T07:38:13.322Z,7.44
2023-04-26T07:39:13.123Z,7.20
2023-04-26T07:40:13.240Z,13.12
2023-04-26T07:41:13.288Z,8.96
2023-04-26T07:42:13.463Z,10.36
2023-04-26T07:43:13.341Z,12.12
2023-04-26T07:44:13.520Z,14.88
2023-04-26T07:45:13.742Z,13.48
2023-04-26T07:46:13.694Z,9.52
2023-04-26T07:47:13.968Z,10.44
2023-04-26T07:48:12.926Z,7.76
2023-04-26T07:49:12.928Z,9.44
2023-04-26T07:50:12.834Z,8.44
2023-04-26T07:51:13.989Z,13.52
2023-04-26T07:52:13.185Z,9.56
2023-04-26T07:53:13.133Z,5.56
2023-04-26T07:54:13.759Z,12.60
2023-04-26T07:55:14.940Z,14.96
2023-04-26T07:56:13.857Z,15.12
2023-04-26T07:57:13.905Z,7.52
2023-04-26T07:58:33.356Z,7.74
2023-04-26T07:59:13.317Z,6.60
2023-04-26T08:00:13.322Z,6.16
2023-04-26T08:01:14.860Z,6.76
2023-04-26T08:02:13.598Z,9.56
2023-04-26T08:03:13.837Z,9.40
2023-04-26T08:04:13.317Z,8.32
2023-04-26T08:05:13.964Z,5.04
2023-04-26T08:06:13.386Z,7.76
2023-04-26T08:07:13.320Z,7.00
2023-04-26T08:08:13.170Z,12.72
2023-04-26T08:09:13.238Z,12.68
2023-04-26T08:10:13.122Z,2.20
2023-04-26T08:11:13.002Z,10.84
2023-04-26T08:12:12.832Z,12.04
2023-04-26T08:13:14.498Z,16.64
2023-04-26T08:14:13.373Z,19.00
2023-04-26T08:15:13.416Z,16.88
2023-04-26T08:16:13.526Z,23.88
2023-04-26T08:17:14.882Z,18.32
2023-04-26T08:18:13.330Z,11.12
2023-04-26T08:19:13.581Z,6.20
2023-04-26T08:20:13.471Z,12.24
2023-04-26T08:21:13.276Z,12.92
2023-04-26T08:22:13.260Z,16.52
2023-04-26T08:23:13.666Z,7.92
2023-04-26T08:24:13.554Z,12.16
2023-04-26T08:25:13.533Z,18.00
2023-04-26T08:26:13.505Z,13.12
2023-04-26T08:27:13.421Z,16.44
2023-04-26T08:28:13.493Z,7.96
2023-04-26T08:29:13.540Z,12.00
2023-04-26T08:30:13.727Z,13.76
2023-04-26T08:31:15.138Z,14.44
2023-04-26T08:32:13.600Z,17.84
2023-04-26T08:33:13.502Z,32.80
2023-04-26T08:34:13.571Z,22.64
2023-04-26T08:35:13.620Z,13.84
2023-04-26T08:36:13.519Z,23.40
2023-04-26T08:37:13.652Z,15.72
2023-04-26T08:38:13.942Z,15.16
2023-04-26T08:39:13.085Z,8.80
2023-04-26T08:40:13.088Z,8.32
2023-04-26T08:41:12.990Z,8.00
2023-04-26T08:42:13.374Z,7.68
2023-04-26T08:43:13.868Z,6.88
2023-04-26T08:44:14.488Z,23.48
2023-04-26T08:45:13.450Z,15.52
2023-04-26T08:46:13.554Z,9.04
2023-04-26T08:47:13.534Z,19.76
2023-04-26T08:48:13.846Z,17.04
2023-04-26T08:49:14.050Z,20.92
2023-04-26T08:50:12.951Z,21.84
2023-04-26T08:51:12.827Z,14.40
2023-04-26T08:52:13.745Z,14.23
2023-04-26T08:53:13.781Z,13.28
2023-04-26T08:54:13.755Z,14.04
2023-04-26T08:55:13.798Z,12.00
2023-04-26T08:56:13.756Z,14.92
2023-04-26T08:57:14.519Z,22.24
2023-04-26T08:58:13.497Z,19.36
2023-04-26T08:59:14.960Z,18.20
2023-04-26T09:00:13.189Z,15.24
2023-04-26T09:01:13.195Z,19.06
2023-04-26T09:02:13.232Z,18.88
2023-04-26T09:03:13.404Z,16.92
2023-04-26T09:04:13.797Z,9.60
2023-04-26T09:05:12.915Z,5.64
2023-04-26T09:06:13.372Z,10.64
2023-04-26T09:07:13.546Z,15.64
2023-04-26T09:08:13.438Z,10.36
2023-04-26T09:09:13.441Z,17.52
2023-04-26T09:10:13.430Z,21.12
2023-04-26T09:11:13.718Z,16.52
2023-04-26T09:12:13.995Z,19.80
2023-04-26T09:13:13.172Z,18.56
2023-04-26T09:14:13.549Z,14.72
2023-04-26T09:15:13.501Z,14.80
2023-04-26T09:16:13.924Z,18.60
2023-04-26T09:17:13.132Z,10.40
2023-04-26T09:18:13.527Z,6.88
2023-04-26T09:19:13.372Z,6.64
2023-04-26T09:20:13.646Z,4.64
2023-04-26T09:21:13.451Z,11.00
2023-04-26T09:22:13.323Z,16.12
2023-04-26T09:23:13.173Z,11.48
2023-04-26T09:24:13.361Z,9.20
2023-04-26T09:25:13.368Z,8.52
2023-04-26T09:26:13.240Z,13.16
2023-04-26T09:27:13.723Z,16.28
2023-04-26T09:28:13.780Z,10.00
2023-04-26T09:29:13.863Z,12.24
2023-04-26T09:30:14.129Z,7.32
2023-04-26T09:31:13.032Z,13.60
2023-04-26T09:32:12.876Z,9.92
2023-04-26T09:33:12.859Z,11.52
2023-04-26T09:34:17.800Z,18.36
2023-04-26T09:35:13.839Z,18.32
2023-04-26T09:36:13.955Z,18.56
2023-04-26T09:37:12.818Z,17.00
2023-04-26T09:38:14.251Z,23.88
2023-04-26T09:39:13.617Z,26.88
2023-04-26T09:40:13.551Z,13.84
2023-04-26T09:41:13.478Z,21.64
2023-04-26T09:42:13.832Z,21.52
2023-04-26T09:43:14.037Z,24.00
2023-04-26T09:44:13.102Z,22.00
2023-04-26T09:45:13.187Z,10.20
2023-04-26T09:46:13.210Z,17.04
2023-04-26T09:47:13.235Z,19.16
2023-04-26T09:48:13.187Z,17.36
2023-04-26T09:49:13.122Z,17.68
2023-04-26T09:50:13.031Z,14.40
2023-04-26T09:51:13.241Z,9.12
2023-04-26T09:52:13.186Z,9.36
2023-04-26T09:53:13.385Z,5.36
2023-04-26T09:54:13.271Z,7.80
2023-04-26T09:55:21.988Z,18.84
2023-04-26T09:56:13.267Z,7.44
2023-04-26T09:57:13.226Z,16.00
2023-04-26T09:58:13.103Z,11.16
2023-04-26T09:59:12.992Z,8.48
2023-04-26T10:00:13.022Z,7.60
2023-04-26T10:01:13.324Z,15.56
2023-04-26T10:02:13.299Z,7.52
2023-04-26T10:03:13.311Z,8.04
2023-04-26T10:04:13.542Z,9.12
2023-04-26T10:05:13.445Z,16.40
2023-04-26T10:06:13.301Z,14.92
2023-04-26T10:07:13.339Z,15.28
2023-04-26T10:08:13.341Z,11.16
2023-04-26T10:09:13.203Z,10.52
2023-04-26T10:10:13.266Z,9.76
2023-04-26T10:11:13.503Z,10.56
2023-04-26T10:12:13.477Z,7.16
2023-04-26T10:13:13.795Z,8.28
2023-04-26T10:14:13.927Z,7.44
2023-04-26T10:15:13.116Z,7.88
2023-04-26T10:16:13.091Z,8.52
2023-04-26T10:17:13.106Z,10.28
2023-04-26T10:18:13.260Z,15.48
2023-04-26T10:19:13.225Z,15.04
2023-04-26T10:20:13.389Z,16.04
2023-04-26T10:21:13.263Z,8.60
2023-04-26T10:22:13.155Z,7.80
2023-04-26T10:23:14.546Z,7.84
2023-04-26T10:24:12.969Z,13.92
2023-04-26T10:25:13.128Z,14.40
2023-04-26T10:26:13.130Z,17.60
2023-04-26T10:27:13.339Z,10.08
2023-04-26T10:28:13.412Z,8.12
2023-04-26T10:29:13.458Z,9.80
2023-04-26T10:30:13.369Z,11.52
2023-04-26T10:31:13.441Z,9.00
2023-04-26T10:32:13.875Z,15.24
2023-04-26T10:33:12.995Z,19.84
2023-04-26T10:34:12.980Z,17.04
2023-04-26T10:35:12.865Z,21.40
2023-04-26T10:36:13.914Z,9.00
2023-04-26T10:37:12.868Z,10.28
2023-04-26T10:38:13.822Z,6.04
2023-04-26T10:39:13.748Z,11.28
2023-04-26T10:40:13.916Z,11.56
2023-04-26T10:41:12.928Z,10.60
2023-04-26T10:42:12.837Z,2.00
2023-04-26T10:43:13.859Z,12.96
2023-04-26T10:44:12.707Z,12.80
2023-04-26T10:45:13.584Z,7.88
2023-04-26T10:46:15.020Z,3.12
2023-04-26T10:47:13.524Z,1.84
2023-04-26T10:48:13.507Z,8.84
2023-04-26T10:49:13.610Z,33.64
2023-04-26T10:50:13.485Z,33.53
2023-04-26T10:51:13.670Z,21.76
2023-04-26T10:52:14.167Z,18.80
2023-04-26T10:53:14.421Z,17.72
2023-04-26T10:54:13.306Z,44.64
2023-04-26T10:55:13.301Z,28.52
2023-04-26T10:56:13.215Z,18.20
2023-04-26T10:57:13.328Z,23.40
2023-04-26T10:58:13.294Z,21.32
2023-04-26T10:59:33.136Z,13.68
2023-04-26T11:01:17.919Z,3.36
2023-04-26T11:02:12.987Z,16.16
2023-04-26T11:03:13.187Z,26.76
2023-04-26T11:04:13.466Z,15.52
2023-04-26T11:05:13.708Z,24.48
2023-04-26T11:06:13.870Z,28.40
2023-04-26T11:07:12.908Z,36.00
2023-04-26T11:08:12.824Z,15.84
2023-04-26T11:09:13.896Z,21.08
2023-04-26T11:10:12.792Z,9.04
2023-04-26T11:11:13.764Z,1.96
2023-04-26T11:12:13.756Z,5.68
2023-04-26T11:13:13.688Z,8.44
2023-04-26T11:14:14.045Z,7.64
2023-04-26T11:15:12.966Z,17.52
2023-04-26T11:16:12.956Z,17.08
2023-04-26T11:17:13.338Z,13.12
2023-04-26T11:18:13.475Z,20.52
2023-04-26T11:19:13.915Z,21.08
2023-04-26T11:20:12.813Z,13.24
2023-04-26T11:21:13.817Z,12.12
2023-04-26T11:22:13.806Z,5.44
2023-04-26T11:23:13.845Z,11.76
2023-04-26T11:24:13.728Z,12.52
2023-04-26T11:25:13.908Z,17.64
2023-04-26T11:26:12.848Z,8.96
2023-04-26T11:27:13.840Z,6.68
2023-04-26T11:28:13.872Z,3.28
2023-04-26T11:29:13.934Z,20.84
2023-04-26T11:30:13.107Z,11.04
2023-04-26T11:31:13.045Z,3.40
2023-04-26T11:32:13.088Z,12.00
2023-04-26T11:33:13.365Z,8.24
2023-04-26T11:34:13.483Z,14.32
2023-04-26T11:35:28.688Z,3.84
2023-04-26T11:36:13.584Z,8.94
2023-04-26T11:37:13.768Z,5.40
2023-04-26T11:38:13.863Z,11.44
2023-04-26T11:39:14.373Z,3.64
2023-04-26T11:40:13.577Z,4.64
2023-04-26T11:41:13.809Z,1.20
2023-04-26T11:42:17.550Z,6.80
2023-04-26T11:43:13.781Z,10.00
2023-04-26T11:44:13.810Z,21.48
2023-04-26T11:45:13.829Z,23.72
2023-04-26T11:46:13.975Z,18.68
2023-04-26T11:47:13.070Z,5.16
2023-04-26T11:48:13.475Z,8.76
2023-04-26T11:49:13.440Z,5.52
2023-04-26T11:50:13.675Z,4.68
2023-04-26T11:51:13.921Z,26.88
2023-04-26T11:52:13.097Z,27.60
2023-04-26T11:53:13.136Z,20.36
2023-04-26T11:54:12.911Z,17.00
2023-04-26T11:55:12.943Z,28.04
2023-04-26T11:56:13.207Z,23.92
2023-04-26T11:57:14.712Z,18.84
2023-04-26T11:58:13.591Z,24.32
2023-04-26T11:59:13.902Z,24.80
2023-04-26T12:00:12.956Z,20.20
2023-04-26T12:01:12.977Z,9.52
2023-04-26T12:02:13.254Z,7.24
2023-04-26T12:03:13.237Z,17.52
2023-04-26T12:04:13.326Z,4.64
2023-04-26T12:05:13.900Z,13.08
2023-04-26T12:06:12.999Z,20.20
2023-04-26T12:07:13.144Z,19.56
2023-04-26T12:08:13.084Z,16.20
2023-04-26T12:09:14.068Z,11.60
2023-04-26T12:10:13.077Z,4.84
2023-04-26T12:11:13.187Z,10.92
2023-04-26T12:12:13.234Z,10.96
2023-04-26T12:13:13.164Z,20.12
2023-04-26T12:14:13.255Z,31.44
2023-04-26T12:15:15.167Z,7.92
2023-04-26T12:16:24.938Z,1.80
2023-04-26T12:17:13.453Z,4.96
2023-04-26T12:18:13.776Z,9.84
2023-04-26T12:19:12.855Z,6.44
2023-04-26T12:20:14.046Z,17.73
2023-04-26T12:21:13.139Z,9.64
2023-04-26T12:22:13.192Z,1.60
2023-04-26T12:23:13.168Z,8.76
2023-04-26T12:24:13.189Z,12.80
2023-04-26T12:25:13.153Z,17.36
2023-04-26T12:26:13.130Z,5.76
2023-04-26T12:27:13.404Z,13.28
2023-04-26T12:28:13.620Z,18.92
2023-04-26T12:29:12.967Z,13.60
2023-04-26T12:30:13.186Z,14.40
2023-04-26T12:31:13.221Z,27.16
2023-04-26T12:32:14.035Z,18.24
2023-04-26T12:33:17.575Z,16.08
2023-04-26T12:34:12.989Z,24.68
2023-04-26T12:35:13.172Z,20.92
2023-04-26T12:36:13.432Z,21.52
2023-04-26T12:37:13.569Z,18.40
2023-04-26T12:38:13.716Z,21.44
2023-04-26T12:39:12.953Z,21.40
2023-04-26T12:40:12.976Z,11.36
2023-04-26T12:41:12.983Z,5.84
2023-04-26T12:42:14.036Z,8.48
2023-04-26T12:43:13.174Z,3.68
2023-04-26T12:44:13.313Z,3.32
2023-04-26T12:45:13.594Z,3.40
2023-04-26T12:46:13.836Z,0.92
2023-04-26T12:47:13.568Z,1.60
2023-04-26T12:48:13.888Z,14.76
2023-04-26T12:49:18.226Z,9.92
2023-04-26T12:50:13.247Z,31.80
2023-04-26T12:51:13.541Z,16.20
2023-04-26T12:52:13.688Z,3.44
2023-04-26T12:53:13.746Z,7.52
2023-04-26T12:54:13.629Z,16.68
2023-04-26T12:55:13.686Z,12.76
2023-04-26T12:56:14.011Z,21.80
2023-04-26T12:57:13.130Z,29.56
2023-04-26T12:58:13.482Z,19.44
2023-04-26T12:59:13.687Z,11.52
2023-04-26T13:00:13.652Z,20.52
2023-04-26T13:01:13.662Z,21.92
2023-04-26T13:02:16.673Z,30.48
2023-04-26T13:03:14.107Z,15.60
2023-04-26T13:04:13.554Z,30.44
2023-04-26T13:05:13.721Z,9.16
2023-04-26T13:06:13.736Z,8.00
2023-04-26T13:07:12.936Z,12.04
2023-04-26T13:08:13.900Z,9.84
2023-04-26T13:09:12.950Z,10.92
2023-04-26T13:10:20.232Z,22.56
2023-04-26T13:11:37.203Z,10.08